Time;durP1;ratioP1;P1;durP2;ratioP2;P2;SDS_P1;SDS_P2;PMS_P1;PMS_P2;Temp;Humidity;BMP_temperature;BMP_pressure;BME280_temperature;BME280_humidity;BME280_pressure;Samples;Min_cycle;Max_cycle;Signal;HPM_P1;HPM_P2
2022/05/22 00:01:15;;;;;;;9.73;8.97;;;13.10;99.90;;;;;;5034147;28;20195;-65
2022/05/22 00:03:41;;;;;;;10.43;9.43;;;13.20;99.90;;;;;;5047491;28;20195;-66
2022/05/22 00:06:07;;;;;;;11.07;9.90;;;13.10;99.90;;;;;;5032241;28;20209;-65
2022/05/22 00:08:33;;;;;;;13.80;12.50;;;13.10;99.90;;;;;;5048064;28;20163;-65
2022/05/22 00:10:59;;;;;;;11.73;10.67;;;13.10;99.90;;;;;;5046091;28;20198;-67
2022/05/22 00:13:24;;;;;;;12.23;11.03;;;13.00;99.90;;;;;;5047513;28;20195;-65
2022/05/22 00:18:34;;;;;;;15.87;13.13;;;13.10;99.90;;;;;;5034099;28;20273;-64
2022/05/22 00:21:00;;;;;;;18.13;14.77;;;13.10;99.90;;;;;;5031481;28;20641;-65
2022/05/22 00:23:28;;;;;;;14.33;12.90;;;13.10;99.90;;;;;;5030714;28;20265;-65
2022/05/22 00:25:56;;;;;;;13.83;12.17;;;13.10;99.90;;;;;;5030802;28;20191;-66
2022/05/22 00:28:21;;;;;;;11.90;10.63;;;13.00;99.90;;;;;;5031005;28;20183;-65
2022/05/22 00:30:47;;;;;;;11.17;10.03;;;13.00;99.90;;;;;;5031448;28;20175;-65
2022/05/22 00:33:12;;;;;;;12.70;11.53;;;12.90;99.90;;;;;;5031102;28;20688;-65
2022/05/22 00:35:40;;;;;;;13.43;12.17;;;13.00;99.90;;;;;;5030864;28;20207;-65
2022/05/22 00:38:06;;;;;;;20.70;15.70;;;13.00;99.90;;;;;;5029750;28;20179;-66
2022/05/22 00:40:31;;;;;;;27.83;16.63;;;13.00;99.90;;;;;;5031293;28;20183;-65
2022/05/22 00:42:57;;;;;;;30.20;23.30;;;13.00;99.90;;;;;;5031291;28;20183;-64
2022/05/22 00:45:23;;;;;;;33.30;26.63;;;13.00;99.90;;;;;;5031216;28;20475;-65
2022/05/22 00:47:51;;;;;;;36.40;25.10;;;13.00;99.90;;;;;;5031070;28;20218;-64
2022/05/22 00:50:17;;;;;;;32.80;24.97;;;13.00;99.90;;;;;;5033672;28;20172;-65
2022/05/22 00:52:50;;;;;;;31.63;22.43;;;13.00;99.90;;;;;;5035350;28;20175;-65
2022/05/22 00:55:20;;;;;;;27.83;19.93;;;12.90;99.90;;;;;;5034851;28;20695;-64
2022/05/22 00:57:52;;;;;;;27.90;19.17;;;12.80;99.90;;;;;;5035069;28;20642;-65
2022/05/22 01:00:21;;;;;;;20.90;17.93;;;12.80;99.90;;;;;;5034637;28;20179;-66
2022/05/22 01:05:32;;;;;;;17.60;15.73;;;12.70;99.90;;;;;;5033777;28;20218;-66
2022/05/22 01:07:59;;;;;;;17.87;14.03;;;12.70;99.90;;;;;;5034585;28;20509;-64
2022/05/22 01:10:35;;;;;;;14.40;11.77;;;12.60;99.90;;;;;;5034222;28;20176;-64
2022/05/22 01:13:01;;;;;;;14.37;12.93;;;12.50;99.90;;;;;;5034610;28;20183;-65
2022/05/22 01:15:27;;;;;;;12.67;11.27;;;12.40;99.90;;;;;;5034298;28;20854;-65
2022/05/22 01:17:53;;;;;;;13.07;11.67;;;12.40;99.90;;;;;;5034318;28;20215;-65
2022/05/22 01:20:19;;;;;;;14.87;12.83;;;12.40;99.90;;;;;;5034419;28;20183;-64
2022/05/22 01:22:45;;;;;;;11.87;10.37;;;12.40;99.90;;;;;;5035441;28;20178;-64
2022/05/22 01:25:11;;;;;;;11.40;10.23;;;12.30;99.90;;;;;;5033647;28;20207;-63
2022/05/22 01:27:38;;;;;;;11.90;10.57;;;12.20;99.90;;;;;;5034097;28;20211;-64
2022/05/22 01:30:17;;;;;;;14.80;9.57;;;12.20;99.90;;;;;;5034225;28;20607;-63
2022/05/22 01:32:45;;;;;;;13.07;10.27;;;12.20;99.90;;;;;;5034291;28;20639;-64
2022/05/22 01:35:15;;;;;;;10.57;9.67;;;12.10;99.90;;;;;;5033539;28;20198;-65
2022/05/22 01:37:42;;;;;;;10.60;9.63;;;12.10;99.90;;;;;;5031523;28;20184;-66
2022/05/22 01:40:09;;;;;;;12.63;9.87;;;12.10;99.90;;;;;;5033929;28;20552;-66
2022/05/22 01:42:36;;;;;;;10.80;9.87;;;12.10;99.90;;;;;;5033971;28;20242;-64
2022/05/22 01:45:03;;;;;;;10.27;9.27;;;12.10;99.90;;;;;;5033784;28;20211;-65
2022/05/22 01:47:32;;;;;;;9.80;9.03;;;12.10;99.90;;;;;;5033554;28;20230;-65
2022/05/22 01:49:58;;;;;;;10.73;9.83;;;12.10;99.90;;;;;;5033524;28;20522;-65
2022/05/22 01:52:24;;;;;;;9.90;9.07;;;11.90;99.90;;;;;;5033634;28;20183;-66
2022/05/22 01:54:49;;;;;;;10.27;9.40;;;11.90;99.90;;;;;;5033359;28;20204;-64
2022/05/22 01:57:15;;;;;;;14.40;10.70;;;11.80;99.90;;;;;;5033566;28;20430;-64
2022/05/22 01:59:41;;;;;;;11.37;10.47;;;11.80;99.90;;;;;;5033569;28;20237;-65
2022/05/22 02:02:07;;;;;;;10.73;9.73;;;11.70;99.90;;;;;;5032065;28;20712;-64
2022/05/22 02:04:32;;;;;;;10.37;9.07;;;11.70;99.90;;;;;;5032992;28;20275;-65
2022/05/22 02:09:43;;;;;;;10.87;9.70;;;11.60;99.90;;;;;;5033560;28;20194;-64
2022/05/22 02:12:08;;;;;;;11.70;10.60;;;11.60;99.90;;;;;;5032961;28;20183;-65
2022/05/22 02:14:34;;;;;;;10.00;9.17;;;11.60;99.90;;;;;;5032864;28;20349;-64
2022/05/22 02:17:00;;;;;;;10.60;9.80;;;11.50;99.90;;;;;;5033020;28;20649;-64
2022/05/22 02:19:25;;;;;;;11.70;10.47;;;11.40;99.90;;;;;;5033015;28;20178;-64
2022/05/22 02:21:51;;;;;;;11.27;10.27;;;11.40;99.90;;;;;;5032703;28;20633;-64
2022/05/22 02:24:16;;;;;;;11.87;10.77;;;11.40;99.90;;;;;;5032873;28;20244;-66
2022/05/22 02:26:42;;;;;;;13.80;9.60;;;11.40;99.90;;;;;;5032569;28;20181;-65
2022/05/22 02:29:08;;;;;;;11.17;10.17;;;11.40;99.90;;;;;;5033108;28;20176;-64
2022/05/22 02:31:34;;;;;;;14.03;10.77;;;11.40;99.90;;;;;;5032466;28;20183;-65
2022/05/22 02:33:59;;;;;;;10.17;9.33;;;11.40;99.90;;;;;;5032667;28;20223;-65
2022/05/22 02:36:25;;;;;;;11.20;10.20;;;11.30;99.90;;;;;;5032338;28;20175;-65
2022/05/22 02:38:51;;;;;;;10.53;9.60;;;11.20;99.90;;;;;;5032874;28;20218;-65
2022/05/22 02:41:17;;;;;;;12.67;11.07;;;11.20;99.90;;;;;;5031226;28;20278;-64
2022/05/22 02:43:43;;;;;;;12.37;11.27;;;11.10;99.90;;;;;;5032735;28;20700;-66
2022/05/22 02:46:14;;;;;;;13.73;12.33;;;11.10;99.90;;;;;;5031761;28;20218;-65
2022/05/22 02:48:41;;;;;;;12.87;11.67;;;11.10;99.90;;;;;;5032717;28;20225;-64
2022/05/22 02:51:17;;;;;;;13.17;11.83;;;11.10;99.90;;;;;;5032422;28;20183;-65
2022/05/22 02:53:43;;;;;;;12.27;11.07;;;11.10;99.90;;;;;;5032831;28;20179;-65
2022/05/22 02:56:10;;;;;;;12.73;11.40;;;11.10;99.90;;;;;;5031846;28;20750;-63
2022/05/22 02:58:36;;;;;;;12.20;11.10;;;11.10;99.90;;;;;;5032184;28;20197;-64
2022/05/22 03:01:03;;;;;;;12.00;10.87;;;11.10;99.90;;;;;;5032032;28;20191;-65
2022/05/22 03:03:29;;;;;;;12.20;11.07;;;11.10;99.90;;;;;;5032166;28;20203;-65
2022/05/22 03:08:39;;;;;;;12.07;10.87;;;11.10;99.90;;;;;;5032434;28;20266;-65
2022/05/22 03:11:05;;;;;;;13.37;11.97;;;11.10;99.90;;;;;;5032152;28;20266;-63
2022/05/22 03:13:32;;;;;;;11.67;10.60;;;11.10;99.90;;;;;;5032131;28;20183;-65
2022/05/22 03:15:57;;;;;;;17.80;11.53;;;11.20;99.90;;;;;;5031401;28;20239;-64
2022/05/22 03:18:23;;;;;;;11.53;10.47;;;11.20;99.90;;;;;;5031933;28;20946;-65
2022/05/22 03:20:49;;;;;;;11.63;10.53;;;11.20;99.90;;;;;;5031806;28;20183;-64
2022/05/22 03:23:15;;;;;;;15.10;10.53;;;11.30;99.90;;;;;;5030537;28;20191;-65
2022/05/22 03:25:41;;;;;;;12.47;11.27;;;11.30;99.90;;;;;;5031342;28;20199;-65
2022/05/22 03:28:07;;;;;;;13.17;11.00;;;11.40;99.90;;;;;;5031961;28;20541;-65
2022/05/22 03:30:32;;;;;;;11.30;10.30;;;11.30;99.90;;;;;;5031291;28;20184;-65
2022/05/22 03:32:58;;;;;;;13.60;10.93;;;11.30;99.90;;;;;;5031858;28;20178;-64
2022/05/22 03:35:23;;;;;;;11.63;10.53;;;11.30;99.90;;;;;;5031169;28;20751;-65
2022/05/22 03:37:49;;;;;;;11.70;10.77;;;11.40;99.90;;;;;;5031755;28;20656;-65
2022/05/22 03:40:15;;;;;;;11.93;10.80;;;11.40;99.90;;;;;;5031653;28;20223;-65
2022/05/22 03:42:41;;;;;;;13.17;11.37;;;11.40;99.90;;;;;;5032096;28;20183;-65
2022/05/22 03:45:08;;;;;;;11.53;9.67;;;11.40;99.90;;;;;;5030348;28;20620;-66
2022/05/22 03:47:33;;;;;;;11.87;10.87;;;11.40;99.90;;;;;;5031737;28;20664;-67
2022/05/22 03:50:04;;;;;;;13.00;11.87;;;11.30;99.90;;;;;;5031368;28;20171;-66
2022/05/22 03:52:40;;;;;;;10.97;10.03;;;11.30;99.90;;;;;;5031843;28;20175;-67
2022/05/22 03:55:09;;;;;;;12.60;11.37;;;11.20;99.90;;;;;;5031246;28;20199;-65
2022/05/22 03:57:34;;;;;;;14.20;11.23;;;11.20;99.90;;;;;;5031651;28;20182;-66
2022/05/22 04:00:10;;;;;;;13.33;11.93;;;11.10;99.90;;;;;;5031233;28;20187;-68
2022/05/22 04:02:35;;;;;;;13.60;11.60;;;11.10;99.90;;;;;;5031523;28;20302;-66
2022/05/22 04:05:03;;;;;;;12.27;11.10;;;11.10;99.90;;;;;;5030934;28;20294;-65
2022/05/22 04:07:28;;;;;;;15.83;10.57;;;11.10;99.90;;;;;;5031316;28;20651;-66
2022/05/22 04:09:56;;;;;;;12.33;11.13;;;11.10;99.90;;;;;;5032027;28;20237;-66
2022/05/22 04:12:22;;;;;;;12.67;11.40;;;11.20;99.90;;;;;;5031099;28;20226;-66
2022/05/22 04:14:47;;;;;;;15.27;12.70;;;11.10;99.90;;;;;;5030946;28;20222;-66
2022/05/22 04:17:13;;;;;;;13.50;12.20;;;11.10;99.90;;;;;;5031296;28;20187;-66
2022/05/22 04:19:39;;;;;;;13.07;11.50;;;11.10;99.90;;;;;;5030112;28;20179;-66
2022/05/22 04:22:05;;;;;;;15.03;10.97;;;11.20;99.90;;;;;;5031239;28;20171;-66
2022/05/22 04:27:15;;;;;;;12.47;11.27;;;11.40;99.90;;;;;;5038815;28;20232;-66
2022/05/22 04:29:41;;;;;;;12.33;11.10;;;11.50;99.90;;;;;;5047967;28;20648;-66
2022/05/22 04:32:07;;;;;;;12.13;11.00;;;11.50;99.90;;;;;;5047391;28;20306;-66
2022/05/22 04:34:33;;;;;;;17.37;12.80;;;11.70;99.90;;;;;;5046666;28;20226;-65
2022/05/22 04:36:58;;;;;;;14.13;11.60;;;11.80;99.90;;;;;;5035205;28;20198;-65
2022/05/22 04:39:24;;;;;;;12.93;11.63;;;12.00;99.90;;;;;;5035045;28;20179;-65
2022/05/22 04:41:50;;;;;;;13.33;12.07;;;12.10;99.90;;;;;;5034631;28;20183;-66
2022/05/22 04:44:16;;;;;;;12.97;11.73;;;12.20;99.90;;;;;;5034405;28;20297;-66
2022/05/22 04:46:41;;;;;;;13.97;11.40;;;12.30;99.90;;;;;;5034702;28;20254;-66
2022/05/22 04:49:07;;;;;;;13.27;11.00;;;12.40;99.90;;;;;;5034722;28;20189;-66
2022/05/22 04:51:32;;;;;;;12.10;10.93;;;12.50;99.90;;;;;;5034756;28;20175;-65
2022/05/22 04:53:58;;;;;;;11.63;10.53;;;12.50;99.90;;;;;;5034733;28;20634;-66
2022/05/22 04:56:24;;;;;;;12.77;11.47;;;12.60;99.90;;;;;;5034417;28;20211;-67
2022/05/22 04:58:50;;;;;;;12.47;11.17;;;12.80;99.90;;;;;;5034952;28;20194;-67
2022/05/22 05:01:16;;;;;;;10.83;9.83;;;13.00;99.90;;;;;;5034525;28;20645;-67
2022/05/22 05:03:41;;;;;;;11.03;9.93;;;13.10;99.90;;;;;;5034764;28;20264;-67
2022/05/22 05:06:07;;;;;;;10.60;9.57;;;13.20;99.90;;;;;;5033989;28;20321;-67
2022/05/22 05:08:33;;;;;;;12.27;11.17;;;13.40;99.90;;;;;;5035181;28;20309;-65
2022/05/22 05:11:00;;;;;;;11.73;10.73;;;13.50;99.90;;;;;;5034863;28;20183;-66
2022/05/22 05:13:27;;;;;;;12.47;11.17;;;13.50;99.90;;;;;;5034183;28;20218;-67
2022/05/22 05:16:05;;;;;;;12.73;11.63;;;13.80;99.90;;;;;;5034050;28;20191;-65
2022/05/22 05:18:31;;;;;;;10.90;9.77;;;14.20;99.90;;;;;;5034339;28;20583;-67
2022/05/22 05:21:03;;;;;;;10.30;9.40;;;14.60;99.90;;;;;;5034496;28;20180;-66
2022/05/22 05:23:28;;;;;;;9.70;8.80;;;14.70;99.90;;;;;;5033908;28;20215;-67
2022/05/22 05:25:54;;;;;;;10.53;9.20;;;15.00;99.90;;;;;;5033941;28;20199;-66
2022/05/22 05:28:20;;;;;;;11.33;9.00;;;15.30;99.90;;;;;;5032742;28;20237;-66
2022/05/22 05:30:45;;;;;;;9.10;8.13;;;15.60;99.90;;;;;;5034575;28;20512;-66
2022/05/22 05:33:11;;;;;;;8.00;7.40;;;16.00;99.90;;;;;;5034691;28;20517;-67
2022/05/22 05:35:36;;;;;;;8.47;7.67;;;16.20;99.90;;;;;;5033332;28;20207;-67
2022/05/22 05:38:03;;;;;;;7.27;6.67;;;16.30;99.90;;;;;;5035084;28;20178;-66
2022/05/22 05:40:29;;;;;;;8.37;7.60;;;16.60;99.90;;;;;;5034154;28;20187;-66
2022/05/22 05:42:55;;;;;;;8.57;7.50;;;16.90;99.90;;;;;;5033922;28;20172;-66
2022/05/22 05:45:21;;;;;;;7.73;7.13;;;17.00;99.90;;;;;;5033453;28;20245;-66
2022/05/22 05:47:47;;;;;;;7.97;7.37;;;16.90;99.90;;;;;;5034124;28;20224;-66
2022/05/22 05:50:14;;;;;;;9.27;7.87;;;16.90;99.90;;;;;;5033772;28;20175;-67
2022/05/22 05:52:40;;;;;;;8.33;7.50;;;16.80;99.90;;;;;;5033717;28;20298;-66
2022/05/22 05:55:06;;;;;;;7.90;7.30;;;16.70;99.90;;;;;;5033186;28;20282;-66
2022/05/22 05:57:32;;;;;;;9.33;8.00;;;16.70;99.90;;;;;;5033415;28;20175;-66
2022/05/22 05:59:58;;;;;;;8.30;7.50;;;16.70;99.90;;;;;;5033103;28;20188;-66
2022/05/22 06:02:24;;;;;;;7.87;7.20;;;16.60;99.90;;;;;;5033102;28;20203;-65
2022/05/22 06:04:50;;;;;;;9.13;7.37;;;16.60;99.90;;;;;;5033343;28;20282;-65
2022/05/22 06:07:16;;;;;;;8.33;7.53;;;16.60;99.90;;;;;;5033408;28;20179;-65
2022/05/22 06:09:42;;;;;;;7.70;6.87;;;16.90;99.90;;;;;;5033459;28;20310;-65
2022/05/22 06:12:08;;;;;;;7.17;6.57;;;17.00;99.90;;;;;;5028691;28;20184;-65
2022/05/22 06:14:34;;;;;;;7.57;7.07;;;17.20;99.90;;;;;;5032875;28;20203;-64
2022/05/22 06:16:59;;;;;;;7.20;6.60;;;17.50;99.90;;;;;;5033073;28;20278;-66
2022/05/22 06:22:09;;;;;;;6.40;5.90;;;18.30;99.90;;;;;;5033054;28;20191;-65
2022/05/22 06:24:36;;;;;;;9.77;6.47;;;18.80;99.90;;;;;;5032626;28;20215;-66
2022/05/22 06:27:02;;;;;;;7.07;6.47;;;19.20;99.90;;;;;;5013284;28;20180;-65
2022/05/22 06:29:28;;;;;;;7.27;6.70;;;19.50;99.90;;;;;;5013071;28;20180;-65
2022/05/22 06:31:54;;;;;;;6.47;6.07;;;19.70;99.90;;;;;;5032568;28;20180;-64
2022/05/22 06:34:22;;;;;;;7.47;6.63;;;19.90;99.90;;;;;;5032661;28;20227;-65
2022/05/22 06:36:51;;;;;;;7.10;6.50;;;20.10;99.90;;;;;;5032321;28;20186;-65
2022/05/22 06:42:00;;;;;;;7.40;6.88;;;20.70;99.90;;;;;;5033020;28;20189;-65
2022/05/22 06:44:27;;;;;;;7.03;6.33;;;21.20;99.90;;;;;;5032011;28;20211;-66
2022/05/22 06:46:53;;;;;;;6.63;5.97;;;21.60;99.90;;;;;;5030369;28;20214;-65
2022/05/22 06:49:19;;;;;;;7.35;6.05;;;21.90;99.90;;;;;;5032061;28;20718;-66
2022/05/22 06:51:47;;;;;;;9.65;6.07;;;22.00;99.90;;;;;;5032644;28;20171;-65
2022/05/22 06:54:12;;;;;;;6.18;5.63;;;22.10;99.90;;;;;;5032089;28;20273;-65
2022/05/22 06:56:38;;;;;;;6.35;5.85;;;22.20;99.90;;;;;;5032252;28;20649;-66
2022/05/22 06:59:03;;;;;;;8.40;5.47;;;22.50;99.90;;;;;;5032309;28;20235;-66
2022/05/22 07:01:29;;;;;;;5.75;5.32;;;22.70;99.90;;;;;;5032365;28;20179;-65
2022/05/22 07:03:55;;;;;;;5.78;5.13;;;22.80;99.90;;;;;;5032239;28;20211;-65
2022/05/22 07:06:20;;;;;;;5.63;5.22;;;22.60;99.90;;;;;;5031789;28;20200;-66
2022/05/22 07:08:46;;;;;;;6.30;5.70;;;22.70;99.90;;;;;;5032158;28;20594;-66
2022/05/22 07:13:56;;;;;;;5.47;4.93;;;23.20;99.90;;;;;;5012430;28;20237;-65
2022/05/22 07:16:21;;;;;;;5.75;5.25;;;23.40;99.90;;;;;;5011727;28;20191;-65
2022/05/22 07:18:47;;;;;;;5.70;5.15;;;23.50;99.90;;;;;;5031229;28;20191;-65
2022/05/22 07:21:12;;;;;;;5.85;5.35;;;23.60;99.90;;;;;;5032203;28;20186;-65
2022/05/22 07:23:38;;;;;;;6.55;5.60;;;23.80;99.90;;;;;;5031691;28;20696;-65
2022/05/22 07:26:05;;;;;;;4.88;4.47;;;24.10;99.90;;;;;;5031465;28;20284;-65
2022/05/22 07:28:31;;;;;;;5.18;4.78;;;24.30;99.90;;;;;;5031607;28;20183;-66
2022/05/22 07:30:57;;;;;;;7.15;4.93;;;24.30;99.90;;;;;;5031920;28;20168;-66
2022/05/22 07:33:23;;;;;;;6.20;5.20;;;24.30;99.90;;;;;;5031656;28;20172;-65
2022/05/22 07:35:56;;;;;;;5.38;4.97;;;24.30;99.90;;;;;;5031580;28;20198;-66
2022/05/22 07:38:23;;;;;;;5.25;4.70;;;24.60;99.90;;;;;;5030239;28;20588;-66
2022/05/22 07:40:49;;;;;;;5.25;4.95;;;25.10;99.90;;;;;;5031771;28;20171;-65
2022/05/22 07:43:16;;;;;;;5.18;4.78;;;25.50;99.90;;;;;;5031241;28;20645;-67
2022/05/22 07:45:41;;;;;;;5.50;5.00;;;25.70;99.90;;;;;;5031307;28;20213;-66
2022/05/22 07:48:07;;;;;;;6.45;4.63;;;25.90;99.90;;;;;;5031137;28;20521;-66
2022/05/22 07:50:33;;;;;;;5.60;5.10;;;26.00;99.90;;;;;;5031423;28;20257;-65
2022/05/22 07:52:59;;;;;;;5.35;4.85;;;26.10;99.90;;;;;;5031416;28;20172;-67
2022/05/22 07:55:24;;;;;;;5.70;5.07;;;26.00;99.90;;;;;;5030969;28;20199;-68
2022/05/22 07:57:50;;;;;;;4.90;4.50;;;26.20;99.90;;;;;;5031218;28;20175;-67
2022/05/22 08:00:19;;;;;;;7.15;5.28;;;26.30;99.90;;;;;;5031218;28;20249;-66
2022/05/22 08:02:46;;;;;;;5.13;4.65;;;26.20;99.90;;;;;;5031603;28;20238;-66
2022/05/22 08:05:14;;;;;;;5.70;4.63;;;26.00;99.90;;;;;;5030716;28;20294;-65
2022/05/22 08:07:40;;;;;;;4.95;4.55;;;26.00;99.90;;;;;;5031359;28;20179;-66
2022/05/22 08:10:07;;;;;;;5.28;4.78;;;25.80;99.90;;;;;;5031266;28;20176;-67
2022/05/22 08:12:38;;;;;;;6.13;5.38;;;25.80;99.90;;;;;;5030956;28;20685;-65
2022/05/22 08:15:04;;;;;;;5.57;4.80;;;26.10;99.90;;;;;;5030891;28;20228;-65
2022/05/22 08:17:35;;;;;;;5.05;4.65;;;26.40;99.90;;;;;;5030812;28;20551;-66
2022/05/22 08:20:12;;;;;;;5.07;4.68;;;26.50;99.90;;;;;;5031277;28;20258;-66
2022/05/22 08:22:40;;;;;;;6.18;5.10;;;26.50;99.90;;;;;;5030948;28;20183;-65
2022/05/22 08:25:07;;;;;;;5.35;4.85;;;26.80;99.90;;;;;;5030860;28;20198;-66
2022/05/22 08:27:34;;;;;;;4.95;4.45;;;26.90;99.90;;;;;;5017197;28;20267;-66
2022/05/22 08:30:00;;;;;;;5.90;5.32;;;26.90;99.90;;;;;;5011451;28;20184;-67
2022/05/22 08:32:26;;;;;;;5.78;5.20;;;27.00;99.90;;;;;;5027153;28;20263;-66
2022/05/22 08:34:53;;;;;;;7.22;5.32;;;26.80;99.90;;;;;;5031182;28;20774;-66
2022/05/22 08:37:19;;;;;;;5.60;5.07;;;26.90;99.90;;;;;;5030755;28;20183;-66
2022/05/22 08:39:44;;;;;;;5.30;4.80;;;26.70;99.90;;;;;;5031204;28;20171;-65
2022/05/22 08:42:16;;;;;;;5.05;4.55;;;26.60;99.90;;;;;;5030414;28;20313;-65
2022/05/22 08:44:42;;;;;;;5.65;5.15;;;26.80;99.90;;;;;;5030629;28;20237;-66
2022/05/22 08:47:20;;;;;;;5.38;4.88;;;26.60;99.90;;;;;;5030758;28;20675;-66
2022/05/22 08:49:54;;;;;;;5.90;5.30;;;26.90;99.90;;;;;;5031206;28;20551;-65
2022/05/22 08:52:25;;;;;;;5.63;4.70;;;27.10;99.90;;;;;;5030321;28;20326;-65
2022/05/22 08:54:57;;;;;;;5.68;4.78;;;27.70;99.90;;;;;;5047800;28;20222;-66
2022/05/22 09:00:27;;;;;;;5.20;4.70;;;27.80;99.90;;;;;;5051024;28;20277;-67
2022/05/22 09:02:59;;;;;;;4.70;4.40;;;27.80;99.90;;;;;;5032182;28;20660;-67
2022/05/22 09:05:29;;;;;;;8.85;5.00;;;28.00;99.90;;;;;;5029936;28;20226;-67
2022/05/22 09:08:03;;;;;;;7.00;5.10;;;28.40;99.90;;;;;;5030611;28;20683;-67
2022/05/22 09:10:56;;;;;;;5.43;4.93;;;28.60;99.90;;;;;;5030089;28;20236;-66
2022/05/22 09:13:39;;;;;;;6.65;4.55;;;28.90;99.90;;;;;;5034040;28;20179;-67
2022/05/22 09:16:10;;;;;;;4.70;4.30;;;28.80;99.90;;;;;;5033957;28;20192;-68
2022/05/22 09:18:46;;;;;;;4.60;4.20;;;29.20;99.90;;;;;;5014492;28;20596;-66
2022/05/22 09:21:35;;;;;;;4.13;3.45;;;29.70;99.90;;;;;;5027182;28;20179;-67
2022/05/22 09:24:05;;;;;;;4.18;3.88;;;29.50;99.90;;;;;;5034327;28;20253;-67
2022/05/22 09:26:56;;;;;;;4.25;3.95;;;29.20;99.90;;;;;;5033181;28;20187;-66
2022/05/22 09:29:40;;;;;;;4.95;4.18;;;29.10;99.90;;;;;;5032909;28;20178;-66
2022/05/22 09:32:30;;;;;;;4.75;4.35;;;28.60;99.90;;;;;;5034673;28;20466;-67
2022/05/22 09:35:13;;;;;;;5.07;3.95;;;28.80;99.90;;;;;;5033547;28;20192;-68
2022/05/22 09:38:03;;;;;;;4.82;4.00;;;29.00;99.90;;;;;;5014288;28;20176;-67
2022/05/22 09:40:36;;;;;;;6.65;4.18;;;29.20;99.90;;;;;;5018637;28;20175;-67
2022/05/22 09:43:24;;;;;;;6.78;4.43;;;28.80;99.90;;;;;;5033864;28;20195;-66
2022/05/22 09:46:21;;;;;;;4.10;3.67;;;29.30;99.90;;;;;;5033430;28;20199;-66
2022/05/22 09:48:55;;;;;;;5.28;4.15;;;29.30;99.90;;;;;;4997635;28;20274;-66
2022/05/22 09:51:54;;;;;;;4.43;4.13;;;29.20;99.90;;;;;;5033367;28;20179;-66
2022/05/22 09:54:41;;;;;;;9.95;4.38;;;29.00;99.90;;;;;;5033031;28;20568;-65
2022/05/22 09:57:33;;;;;;;5.47;4.82;;;28.80;99.90;;;;;;5033240;28;20183;-66
2022/05/22 10:00:10;;;;;;;5.13;4.68;;;29.10;99.90;;;;;;5014647;28;20715;-64
2022/05/22 10:03:00;;;;;;;5.50;4.03;;;29.30;99.90;;;;;;5034193;28;20192;-67
2022/05/22 10:05:45;;;;;;;4.30;3.90;;;29.30;99.90;;;;;;5032449;28;20211;-66
2022/05/22 10:08:19;;;;;;;4.22;3.78;;;28.40;99.90;;;;;;5033210;28;20206;-66
2022/05/22 10:10:55;;;;;;;4.28;3.92;;;27.60;99.90;;;;;;5032951;28;20175;-66
2022/05/22 10:13:34;;;;;;;4.45;4.10;;;27.80;99.90;;;;;;5033158;28;20194;-66
2022/05/22 10:16:10;;;;;;;4.30;3.83;;;28.40;99.90;;;;;;5032312;28;20560;-67
2022/05/22 10:19:17;;;;;;;4.95;4.20;;;28.00;99.90;;;;;;5032687;28;20575;-68
2022/05/22 10:21:46;;;;;;;6.82;4.07;;;27.70;99.90;;;;;;5016029;28;20268;-67
2022/05/22 10:25:02;;;;;;;4.47;4.07;;;27.80;99.90;;;;;;5032194;28;20204;-67
2022/05/22 10:27:33;;;;;;;4.88;4.47;;;28.20;99.90;;;;;;5015034;28;20194;-67
2022/05/22 10:30:06;;;;;;;4.22;3.83;;;28.30;99.90;;;;;;5032840;28;20656;-67
2022/05/22 10:32:42;;;;;;;4.68;4.30;;;28.30;99.90;;;;;;5032435;28;20238;-65
2022/05/22 10:35:44;;;;;;;6.15;4.13;;;28.80;99.90;;;;;;5032223;28;20210;-67
2022/05/22 10:38:19;;;;;;;4.60;3.90;;;29.30;99.90;;;;;;5032642;28;20194;-64
2022/05/22 10:43:45;;;;;;;5.03;4.20;;;29.30;99.90;;;;;;5032654;28;20249;-64
2022/05/22 10:46:10;;;;;;;4.78;4.10;;;29.30;99.90;;;;;;5031975;28;20261;-67
2022/05/22 10:48:49;;;;;;;4.57;4.28;;;29.10;99.90;;;;;;5031960;28;20187;-66
2022/05/22 10:51:23;;;;;;;4.70;4.30;;;28.40;99.90;;;;;;5032834;28;20195;-67
2022/05/22 10:53:53;;;;;;;5.00;4.60;;;27.60;99.90;;;;;;5032402;28;20182;-66
2022/05/22 10:56:26;;;;;;;7.05;4.18;;;26.80;99.90;;;;;;5031819;28;20193;-66
2022/05/22 10:59:00;;;;;;;4.72;4.32;;;26.20;99.90;;;;;;5032326;28;20545;-66
2022/05/22 11:01:35;;;;;;;4.45;4.15;;;26.00;99.90;;;;;;5032697;28;20261;-66
2022/05/22 11:04:07;;;;;;;4.45;4.10;;;25.80;99.90;;;;;;5032033;28;20293;-66
2022/05/22 11:06:36;;;;;;;4.15;3.85;;;25.90;99.90;;;;;;5032112;28;20175;-68
2022/05/22 11:09:03;;;;;;;4.43;4.03;;;26.20;99.90;;;;;;5032118;28;20176;-66
2022/05/22 11:11:31;;;;;;;4.63;4.25;;;26.70;99.90;;;;;;5032164;28;20163;-66
2022/05/22 11:14:19;;;;;;;5.40;4.00;;;27.40;99.90;;;;;;5032127;28;20866;-66
2022/05/22 11:16:45;;;;;;;5.30;3.97;;;28.40;99.90;;;;;;5032050;28;20175;-67
2022/05/22 11:19:23;;;;;;;4.95;3.78;;;29.30;99.90;;;;;;5032084;28;20650;-66
2022/05/22 11:21:57;;;;;;;4.15;3.83;;;30.10;99.90;;;;;;5032297;28;20182;-66
2022/05/22 11:24:55;;;;;;;4.30;3.55;;;30.50;99.90;;;;;;5031716;28;20815;-66
2022/05/22 11:27:40;;;;;;;4.22;3.75;;;30.70;99.90;;;;;;5031923;28;20179;-67
2022/05/22 11:30:32;;;;;;;3.80;3.50;;;30.60;99.90;;;;;;5031938;28;20176;-66
2022/05/22 11:33:18;;;;;;;5.20;4.10;;;30.70;99.90;;;;;;5013493;28;20641;-67
2022/05/22 11:35:47;;;;;;;3.55;3.25;;;30.40;99.90;;;;;;5030371;28;20218;-65
2022/05/22 11:38:12;;;;;;;3.90;3.47;;;30.40;99.90;;;;;;5032054;28;20178;-65
2022/05/22 11:41:21;;;;;;;4.45;3.72;;;30.50;99.90;;;;;;5031882;28;20183;-67
2022/05/22 11:44:05;;;;;;;3.95;3.50;;;30.00;99.90;;;;;;5026874;28;20203;-67
2022/05/22 11:46:36;;;;;;;4.10;3.75;;;29.90;99.90;;;;;;5030623;28;20301;-66
2022/05/22 11:49:38;;;;;;;5.55;3.58;;;30.10;99.90;;;;;;5031186;28;20258;-66
2022/05/22 11:52:09;;;;;;;5.47;4.03;;;30.30;99.90;;;;;;5027574;28;20578;-64
2022/05/22 11:55:17;;;;;;;3.95;3.45;;;30.20;99.90;;;;;;5028732;28;20566;-64
2022/05/22 11:58:07;;;;;;;5.05;3.60;;;30.90;99.90;;;;;;5021636;28;20203;-64
2022/05/22 12:00:40;;;;;;;3.42;3.05;;;31.60;99.90;;;;;;5044185;28;20178;-65
2022/05/22 12:03:38;;;;;;;3.33;3.03;;;31.90;98.90;;;;;;5035371;28;20183;-66
2022/05/22 12:06:27;;;;;;;3.08;2.88;;;32.00;96.10;;;;;;5031043;28;20285;-64
2022/05/22 12:08:52;;;;;;;3.38;3.03;;;32.50;95.40;;;;;;5030444;28;20183;-66
2022/05/22 12:11:27;;;;;;;3.72;3.42;;;32.40;94.00;;;;;;5031313;28;20184;-66
2022/05/22 12:14:16;;;;;;;3.97;3.63;;;31.70;95.50;;;;;;5031504;28;20253;-66
2022/05/22 12:17:09;;;;;;;3.90;3.60;;;31.30;96.00;;;;;;5011593;28;20731;-66
2022/05/22 12:19:46;;;;;;;4.22;3.28;;;30.60;95.70;;;;;;5003308;28;20220;-66
2022/05/22 12:22:21;;;;;;;4.93;4.40;;;30.10;96.80;;;;;;5031623;28;20171;-67
2022/05/22 12:24:59;;;;;;;4.63;3.50;;;30.00;95.20;;;;;;5030920;28;20260;-67
2022/05/22 12:27:27;;;;;;;5.43;3.50;;;29.90;95.10;;;;;;5030453;28;20164;-67
2022/05/22 12:30:18;;;;;;;4.45;3.90;;;29.80;95.20;;;;;;5036421;28;20168;-67
2022/05/22 12:32:51;;;;;;;4.80;3.47;;;30.00;98.20;;;;;;5029352;28;20594;-64
2022/05/22 12:35:18;;;;;;;3.70;3.38;;;30.20;97.90;;;;;;5040566;28;20470;-64
2022/05/22 12:37:48;;;;;;;5.95;3.17;;;30.70;97.20;;;;;;5051395;28;20239;-64
2022/05/22 12:40:19;;;;;;;4.07;3.78;;;30.90;94.50;;;;;;5043633;28;20522;-65
2022/05/22 12:42:51;;;;;;;3.45;3.17;;;31.40;97.10;;;;;;5032558;28;20644;-64
2022/05/22 12:45:17;;;;;;;3.60;3.10;;;31.70;94.40;;;;;;5032486;28;20233;-64
2022/05/22 12:47:45;;;;;;;7.45;3.47;;;31.50;93.20;;;;;;5037081;28;20186;-64
2022/05/22 12:50:23;;;;;;;3.50;3.30;;;31.10;94.80;;;;;;5039018;28;20782;-64
2022/05/22 12:52:52;;;;;;;3.08;2.88;;;31.00;94.30;;;;;;5035213;28;20701;-64
2022/05/22 12:55:31;;;;;;;5.03;3.35;;;31.10;95.20;;;;;;5034221;28;20548;-65
2022/05/22 12:57:59;;;;;;;3.28;3.03;;;31.60;92.70;;;;;;5035226;28;20178;-63
2022/05/22 13:00:42;;;;;;;4.75;4.32;;;31.40;92.90;;;;;;5034710;28;20576;-64
2022/05/22 13:03:18;;;;;;;3.80;3.50;;;31.20;92.30;;;;;;5034771;28;20175;-64
2022/05/22 13:06:09;;;;;;;4.25;3.83;;;31.30;92.60;;;;;;5034418;28;20210;-65
2022/05/22 13:08:40;;;;;;;4.45;4.05;;;31.50;92.40;;;;;;5027050;28;20188;-64
2022/05/22 13:11:36;;;;;;;3.35;3.03;;;31.60;91.60;;;;;;5034634;28;20272;-64
2022/05/22 13:14:03;;;;;;;3.22;2.95;;;31.40;91.50;;;;;;5029164;28;20664;-64
2022/05/22 13:16:35;;;;;;;3.67;3.30;;;31.20;91.30;;;;;;5035855;28;20182;-63
2022/05/22 13:19:01;;;;;;;3.22;3.00;;;31.50;92.30;;;;;;5036015;28;20183;-64
2022/05/22 13:21:30;;;;;;;2.65;2.50;;;31.80;90.40;;;;;;5035363;28;20191;-65
2022/05/22 13:24:15;;;;;;;3.25;3.05;;;32.30;86.00;;;;;;5034942;28;20211;-64
2022/05/22 13:26:53;;;;;;;3.05;2.83;;;32.40;83.90;;;;;;5035160;28;20164;-64